createdAt,value
2019-05-22T00:01:20.370Z,74.69
2019-05-22T00:03:54.008Z,74.77
2019-05-22T00:06:27.148Z,76.10
2019-05-22T00:08:58.572Z,75.55
2019-05-22T00:11:29.376Z,74.70
2019-05-22T00:13:59.633Z,75.07
2019-05-22T00:16:28.305Z,75.08
2019-05-22T00:18:57.291Z,76.58
2019-05-22T00:21:25.737Z,75.39
2019-05-22T00:23:54.943Z,75.26
2019-05-22T00:26:23.398Z,75.54
2019-05-22T00:28:54.068Z,75.30
2019-05-22T00:31:30.167Z,75.58
2019-05-22T00:34:00.250Z,75.30
2019-05-22T00:36:30.027Z,75.92
2019-05-22T00:38:58.492Z,75.69
2019-05-22T00:41:28.580Z,75.82
2019-05-22T00:43:58.186Z,74.88
2019-05-22T00:46:28.387Z,74.95
2019-05-22T00:48:57.653Z,75.09
2019-05-22T00:51:27.423Z,74.90
2019-05-22T00:54:00.939Z,74.18
2019-05-22T00:56:31.673Z,74.42
2019-05-22T00:59:04.899Z,74.28
2019-05-22T01:01:54.157Z,74.35
2019-05-22T01:04:24.345Z,75.06
2019-05-22T01:06:54.866Z,75.30
2019-05-22T01:09:30.912Z,75.30
2019-05-22T01:12:00.619Z,74.36
2019-05-22T01:14:42.602Z,73.09
2019-05-22T01:17:04.791Z,72.79
2019-05-22T01:19:34.236Z,73.74
2019-05-22T01:22:04.734Z,73.18
2019-05-22T01:24:34.918Z,74.09
2019-05-22T01:27:04.554Z,74.27
2019-05-22T01:29:34.293Z,73.72
2019-05-22T01:32:07.032Z,72.97
2019-05-22T01:34:37.273Z,73.11
2019-05-22T01:37:07.893Z,74.22
2019-05-22T01:39:47.049Z,73.82
2019-05-22T01:42:18.567Z,72.88
2019-05-22T01:45:00.410Z,73.47
2019-05-22T01:47:26.920Z,74.10
2019-05-22T01:49:56.326Z,73.14
2019-05-22T01:52:27.098Z,72.61
2019-05-22T01:54:57.582Z,72.15
2019-05-22T01:57:27.515Z,71.73
2019-05-22T01:59:57.123Z,71.51
2019-05-22T02:02:26.093Z,71.54
2019-05-22T02:04:54.548Z,71.20
2019-05-22T02:07:24.341Z,70.32
2019-05-22T02:09:54.694Z,71.20
2019-05-22T02:12:27.794Z,70.88
2019-05-22T02:14:59.299Z,70.72
2019-05-22T02:17:33.838Z,71.03
2019-05-22T02:20:04.623Z,70.31
2019-05-22T02:22:34.110Z,70.60
2019-05-22T02:25:10.007Z,70.03
2019-05-22T02:27:39.876Z,69.55
2019-05-22T02:30:10.458Z,70.05
2019-05-22T02:32:41.079Z,69.23
2019-05-22T02:35:11.311Z,69.79
2019-05-22T02:37:41.604Z,69.63
2019-05-22T02:40:19.500Z,69.78
2019-05-22T02:42:49.715Z,68.95
2019-05-22T02:45:18.396Z,68.80
2019-05-22T02:47:48.839Z,68.88
2019-05-22T02:50:18.387Z,68.30
2019-05-22T02:52:47.873Z,67.87
2019-05-22T02:55:16.858Z,66.63
2019-05-22T02:57:46.564Z,66.22
2019-05-22T03:00:16.729Z,66.01
2019-05-22T03:02:55.741Z,65.66
2019-05-22T03:05:28.036Z,66.15
2019-05-22T03:07:58.163Z,66.62
2019-05-22T03:10:28.613Z,66.46
2019-05-22T03:12:58.415Z,66.42
2019-05-22T03:15:28.603Z,66.58
2019-05-22T03:18:01.791Z,67.52
2019-05-22T03:20:33.196Z,67.13
2019-05-22T03:23:33.531Z,67.53
2019-05-22T03:26:02.343Z,67.81
2019-05-22T03:28:31.813Z,67.36
2019-05-22T03:31:00.524Z,68.24
2019-05-22T03:33:29.512Z,68.06
2019-05-22T03:36:09.566Z,67.64
2019-05-22T03:38:40.215Z,66.90
2019-05-22T03:41:10.976Z,66.88
2019-05-22T03:43:44.037Z,66.77
2019-05-22T03:46:21.666Z,66.06
2019-05-22T03:48:50.114Z,65.77
2019-05-22T03:51:19.138Z,65.40
2019-05-22T03:53:48.449Z,66.13
2019-05-22T03:56:17.461Z,66.01
2019-05-22T03:58:47.114Z,65.50
2019-05-22T04:01:15.641Z,65.73
2019-05-22T04:03:45.793Z,66.36
2019-05-22T04:06:16.248Z,65.52
2019-05-22T04:08:45.622Z,64.89
2019-05-22T04:11:14.810Z,64.92
2019-05-22T04:13:43.400Z,65.12
2019-05-22T04:16:13.773Z,65.09
2019-05-22T04:18:43.366Z,65.25
2019-05-22T04:21:11.985Z,64.58
2019-05-22T04:23:40.534Z,64.95
2019-05-22T04:26:11.223Z,65.22
2019-05-22T04:28:52.603Z,64.88
2019-05-22T04:31:33.290Z,64.91
2019-05-22T04:34:01.799Z,65.04
2019-05-22T04:36:30.570Z,64.86
2019-05-22T04:39:08.567Z,65.03
2019-05-22T04:41:37.398Z,65.17
2019-05-22T04:44:06.869Z,64.84
2019-05-22T04:46:35.959Z,64.68
2019-05-22T04:49:05.815Z,65.17
2019-05-22T04:51:34.996Z,65.34
2019-05-22T04:54:03.616Z,65.68
2019-05-22T04:56:32.391Z,65.43
2019-05-22T04:59:02.045Z,65.24
2019-05-22T05:01:31.003Z,65.08
2019-05-22T05:04:00.052Z,64.90
2019-05-22T05:06:31.238Z,65.45
2019-05-22T05:09:00.310Z,66.16
2019-05-22T05:11:31.678Z,64.55
2019-05-22T05:14:01.626Z,64.73
2019-05-22T05:16:32.919Z,64.25
2019-05-22T05:19:20.005Z,63.96
2019-05-22T05:21:48.503Z,64.68
2019-05-22T05:24:16.932Z,64.02
2019-05-22T05:26:45.429Z,64.38
2019-05-22T05:29:25.312Z,63.69
2019-05-22T05:31:54.048Z,62.70
2019-05-22T05:34:34.213Z,62.43
2019-05-22T05:37:03.262Z,62.92
2019-05-22T05:39:49.701Z,62.18
2019-05-22T05:42:19.672Z,62.80
2019-05-22T05:44:49.219Z,62.74
2019-05-22T05:47:18.904Z,63.05
2019-05-22T05:49:49.210Z,62.72
2019-05-22T05:52:17.645Z,62.34
2019-05-22T05:54:47.850Z,62.35
2019-05-22T05:57:40.766Z,62.52
2019-05-22T06:00:35.875Z,62.25
2019-05-22T06:03:05.097Z,62.26
2019-05-22T06:05:34.725Z,61.41
2019-05-22T06:08:03.205Z,61.42
2019-05-22T06:11:15.191Z,61.82
2019-05-22T06:13:43.648Z,61.65
2019-05-22T06:16:22.693Z,61.86
2019-05-22T06:18:53.009Z,61.95
2019-05-22T06:21:24.361Z,62.13
2019-05-22T06:24:23.790Z,61.19
2019-05-22T06:27:02.429Z,61.57
2019-05-22T06:29:34.632Z,62.59
2019-05-22T06:32:07.776Z,62.78
2019-05-22T06:34:37.078Z,62.90
2019-05-22T06:37:31.314Z,61.52
2019-05-22T06:40:01.405Z,61.09
2019-05-22T06:42:30.102Z,61.44
2019-05-22T06:44:58.552Z,61.81
2019-05-22T06:47:28.728Z,61.93
2019-05-22T06:49:57.819Z,60.64
2019-05-22T06:52:27.114Z,61.23
2019-05-22T06:54:56.676Z,61.04
2019-05-22T06:57:26.652Z,61.32
2019-05-22T07:00:12.441Z,61.79
2019-05-22T07:02:26.024Z,60.19
2019-05-22T07:04:54.608Z,61.88
2019-05-22T07:07:24.688Z,61.27
2019-05-22T07:09:53.436Z,60.73
2019-05-22T07:12:23.525Z,60.30
2019-05-22T07:15:11.232Z,60.26
2019-05-22T07:17:39.769Z,59.82
2019-05-22T07:20:08.941Z,59.07
2019-05-22T07:22:37.528Z,59.48
2019-05-22T07:25:08.802Z,58.80
2019-05-22T07:27:37.670Z,58.23
2019-05-22T07:30:09.038Z,58.57
2019-05-22T07:32:38.131Z,58.74
2019-05-22T07:35:07.855Z,58.11
2019-05-22T07:37:45.167Z,57.30
2019-05-22T07:40:14.167Z,56.91
2019-05-22T07:42:42.643Z,57.75
2019-05-22T07:45:12.528Z,56.47
2019-05-22T07:47:42.561Z,57.84
2019-05-22T07:50:12.547Z,56.47
2019-05-22T07:52:41.241Z,57.55
2019-05-22T07:55:09.922Z,55.41
2019-05-22T07:57:41.206Z,56.06
2019-05-22T08:00:10.432Z,56.12
2019-05-22T08:02:42.130Z,54.89
2019-05-22T08:05:11.114Z,54.65
2019-05-22T08:07:41.329Z,54.59
2019-05-22T08:10:13.954Z,54.72
2019-05-22T08:12:44.017Z,55.29
2019-05-22T08:15:13.166Z,54.55
2019-05-22T08:17:48.008Z,56.07
2019-05-22T08:20:16.861Z,55.34
2019-05-22T08:22:47.537Z,54.89
2019-05-22T08:25:17.075Z,54.16
2019-05-22T08:27:48.097Z,54.13
2019-05-22T08:30:17.078Z,54.25
2019-05-22T08:32:45.694Z,53.97
2019-05-22T08:35:14.174Z,54.66
2019-05-22T08:37:42.997Z,55.27
2019-05-22T08:40:13.928Z,54.76
2019-05-22T08:42:42.518Z,53.48
2019-05-22T08:45:13.539Z,53.37
2019-05-22T08:47:42.122Z,52.93
2019-05-22T08:50:15.914Z,51.11
2019-05-22T08:52:51.301Z,53.24
2019-05-22T08:55:20.050Z,51.06
2019-05-22T08:57:49.785Z,52.15
2019-05-22T09:00:21.247Z,50.85
2019-05-22T09:02:50.899Z,50.38
2019-05-22T09:05:21.441Z,51.29
2019-05-22T09:07:49.869Z,51.69
2019-05-22T09:10:19.215Z,52.58
2019-05-22T09:12:47.721Z,52.82
2019-05-22T09:15:16.800Z,53.26
2019-05-22T09:17:45.245Z,54.15
2019-05-22T09:20:19.235Z,51.36
2019-05-22T09:22:48.006Z,53.05
2019-05-22T09:25:17.222Z,53.52
2019-05-22T09:27:47.446Z,52.33
2019-05-22T09:30:17.454Z,52.20
2019-05-22T09:32:47.716Z,51.96
2019-05-22T09:35:16.372Z,51.08
2019-05-22T09:37:44.916Z,48.46
2019-05-22T09:40:13.590Z,49.65
2019-05-22T09:42:42.390Z,50.23
2019-05-22T09:45:11.512Z,49.28
2019-05-22T09:47:40.777Z,48.08
2019-05-22T09:50:11.175Z,48.98
2019-05-22T09:52:56.369Z,49.49
2019-05-22T09:55:13.128Z,49.72
2019-05-22T09:57:41.663Z,49.48
2019-05-22T10:00:11.880Z,50.58
2019-05-22T10:02:40.744Z,49.13
2019-05-22T10:05:10.686Z,47.05
2019-05-22T10:07:57.118Z,48.29
2019-05-22T10:10:11.078Z,46.31
2019-05-22T10:12:39.574Z,47.24
2019-05-22T10:15:11.315Z,47.51
2019-05-22T10:17:47.216Z,46.44
2019-05-22T10:20:15.921Z,49.06
2019-05-22T10:22:44.486Z,48.64
2019-05-22T10:25:16.216Z,45.22
2019-05-22T10:27:43.798Z,44.76
2019-05-22T10:30:16.599Z,43.89
2019-05-22T10:32:44.984Z,44.61
2019-05-22T10:35:14.823Z,46.29
2019-05-22T10:37:43.347Z,46.67
2019-05-22T10:40:13.488Z,46.98
2019-05-22T10:42:44.994Z,44.90
2019-05-22T10:45:14.370Z,43.06
2019-05-22T10:47:45.276Z,44.28
2019-05-22T10:50:15.586Z,43.76
2019-05-22T10:52:44.019Z,42.28
2019-05-22T10:55:13.624Z,42.51
2019-05-22T10:57:43.649Z,40.79
2019-05-22T11:00:15.280Z,36.99
2019-05-22T11:02:44.156Z,36.08
2019-05-22T11:05:13.409Z,35.67
2019-05-22T11:07:42.868Z,32.73
2019-05-22T11:10:12.127Z,30.55
2019-05-22T11:12:40.885Z,30.27
2019-05-22T11:15:10.146Z,30.48
2019-05-22T11:17:39.670Z,27.39
2019-05-22T11:20:10.018Z,26.82
2019-05-22T11:22:38.604Z,27.02
2019-05-22T11:25:08.854Z,28.38
2019-05-22T11:27:37.439Z,28.68
2019-05-22T11:30:07.423Z,28.05
2019-05-22T11:32:36.085Z,26.32
2019-05-22T11:35:07.676Z,27.40
2019-05-22T11:37:37.126Z,29.00
2019-05-22T11:40:08.052Z,29.78
2019-05-22T11:42:38.033Z,30.09
2019-05-22T11:45:10.173Z,27.76
2019-05-22T11:47:39.269Z,26.95
2019-05-22T11:50:11.631Z,29.54
2019-05-22T11:52:40.143Z,28.79
2019-05-22T11:55:09.211Z,27.11
2019-05-22T11:57:38.952Z,26.48
2019-05-22T12:00:09.289Z,27.00
2019-05-22T12:02:39.443Z,26.10
2019-05-22T12:05:10.631Z,26.02
2019-05-22T12:07:41.259Z,27.89
2019-05-22T12:10:11.628Z,28.08
2019-05-22T12:12:52.635Z,29.42
2019-05-22T12:15:25.070Z,29.51
2019-05-22T12:17:54.123Z,26.61
2019-05-22T12:20:25.213Z,29.32
2019-05-22T12:22:53.715Z,30.18
2019-05-22T12:25:22.914Z,30.63
2019-05-22T12:27:51.711Z,32.93
2019-05-22T12:30:21.248Z,34.35
2019-05-22T12:32:50.158Z,32.81
2019-05-22T12:35:19.450Z,33.96
2019-05-22T12:37:47.863Z,36.07
2019-05-22T12:40:19.102Z,34.19
2019-05-22T12:42:48.973Z,34.83
2019-05-22T12:45:19.479Z,32.52
2019-05-22T12:47:47.974Z,31.33
2019-05-22T12:50:19.224Z,32.86
2019-05-22T12:52:50.585Z,32.02
2019-05-22T12:55:20.916Z,33.57
2019-05-22T12:57:50.785Z,29.17
2019-05-22T13:00:23.751Z,31.24
2019-05-22T13:02:54.998Z,36.81
2019-05-22T13:05:23.844Z,32.67
2019-05-22T13:07:53.008Z,35.47
2019-05-22T13:10:22.258Z,37.77
2019-05-22T13:12:51.612Z,35.11
2019-05-22T13:15:23.004Z,36.34
2019-05-22T13:17:54.150Z,36.01
2019-05-22T13:20:41.138Z,37.88
2019-05-22T13:22:58.478Z,37.41
2019-05-22T13:25:31.136Z,38.49
2019-05-22T13:28:02.345Z,37.83
2019-05-22T13:30:32.562Z,39.49
2019-05-22T13:33:01.074Z,39.34
2019-05-22T13:35:30.853Z,39.11
2019-05-22T13:37:59.482Z,38.84
2019-05-22T13:40:28.915Z,37.00
2019-05-22T13:42:59.387Z,39.24
2019-05-22T13:45:30.167Z,37.97
2019-05-22T13:47:59.126Z,35.39
2019-05-22T13:50:29.202Z,36.73
2019-05-22T13:53:00.671Z,35.67
2019-05-22T13:55:30.160Z,35.50
2019-05-22T13:57:59.894Z,34.63
2019-05-22T14:00:28.791Z,36.45
2019-05-22T14:02:58.001Z,36.29
2019-05-22T14:05:28.166Z,35.14
2019-05-22T14:07:56.793Z,36.46
2019-05-22T14:10:28.060Z,35.92
2019-05-22T14:12:57.249Z,36.90
2019-05-22T14:15:26.346Z,37.53
2019-05-22T14:17:55.696Z,38.21
2019-05-22T14:20:25.180Z,37.13
2019-05-22T14:22:53.861Z,35.67
2019-05-22T14:25:23.831Z,38.73
2019-05-22T14:27:52.514Z,35.13
2019-05-22T14:30:26.697Z,34.75
2019-05-22T14:32:57.580Z,36.95
2019-05-22T14:35:46.557Z,39.23
2019-05-22T14:37:58.906Z,39.62
2019-05-22T14:40:28.921Z,38.04
2019-05-22T14:42:57.847Z,38.20
2019-05-22T14:45:26.300Z,36.96
2019-05-22T14:47:54.901Z,38.31
2019-05-22T14:50:24.637Z,37.62
2019-05-22T14:52:53.842Z,38.08
2019-05-22T14:55:22.416Z,39.49
2019-05-22T14:57:51.623Z,37.61
2019-05-22T15:00:22.512Z,39.56
2019-05-22T15:02:56.302Z,37.54
2019-05-22T15:05:23.539Z,38.15
2019-05-22T15:07:52.328Z,37.13
2019-05-22T15:10:21.854Z,35.99
2019-05-22T15:12:50.929Z,37.93
2019-05-22T15:15:20.202Z,35.14
2019-05-22T15:17:48.898Z,37.20
2019-05-22T15:20:21.368Z,35.29
2019-05-22T15:22:49.974Z,35.39
2019-05-22T15:25:19.006Z,36.02
2019-05-22T15:27:47.439Z,32.01
2019-05-22T15:30:16.808Z,32.17
2019-05-22T15:32:45.506Z,33.50
2019-05-22T15:35:14.559Z,33.15
2019-05-22T15:37:43.533Z,35.28
2019-05-22T15:40:13.697Z,33.44
2019-05-22T15:42:45.053Z,34.09
2019-05-22T15:45:18.110Z,35.21
2019-05-22T15:47:55.528Z,33.17
2019-05-22T15:50:21.160Z,32.20
2019-05-22T15:53:07.605Z,31.67
2019-05-22T15:55:36.682Z,32.01
2019-05-22T15:58:06.440Z,33.28
2019-05-22T16:00:37.612Z,34.34
2019-05-22T16:03:13.697Z,33.35
2019-05-22T16:05:43.679Z,38.63
2019-05-22T16:08:16.553Z,36.87
2019-05-22T16:10:48.298Z,36.65
2019-05-22T16:13:20.510Z,34.52
2019-05-22T16:15:53.424Z,34.46
2019-05-22T16:18:32.333Z,36.31
2019-05-22T16:21:03.806Z,34.63
2019-05-22T16:23:34.437Z,37.32
2019-05-22T16:26:05.529Z,36.87
2019-05-22T16:28:40.912Z,35.80
2019-05-22T16:31:11.924Z,36.04
2019-05-22T16:33:43.169Z,36.25
2019-05-22T16:36:13.244Z,36.18
2019-05-22T16:38:44.354Z,37.12
2019-05-22T16:41:13.191Z,38.46
2019-05-22T16:43:49.754Z,35.38
2019-05-22T16:46:16.838Z,36.07
2019-05-22T16:48:48.212Z,35.54
2019-05-22T16:51:18.433Z,34.24
2019-05-22T16:53:53.295Z,34.09
2019-05-22T16:56:23.577Z,33.65
2019-05-22T16:58:52.607Z,35.26
2019-05-22T17:01:22.727Z,33.80
2019-05-22T17:03:53.956Z,34.31
2019-05-22T17:06:24.285Z,33.83
2019-05-22T17:08:56.038Z,32.99
2019-05-22T17:11:25.634Z,35.04
2019-05-22T17:13:58.712Z,34.33
2019-05-22T17:16:29.577Z,33.85
2019-05-22T17:19:23.690Z,35.54
2019-05-22T17:21:35.766Z,34.87
2019-05-22T17:24:05.714Z,35.07
2019-05-22T17:26:36.351Z,36.33
2019-05-22T17:29:07.723Z,36.60
2019-05-22T17:31:37.486Z,36.31
2019-05-22T17:34:08.400Z,36.16
2019-05-22T17:36:37.930Z,36.65
2019-05-22T17:39:11.176Z,36.16
2019-05-22T17:41:42.445Z,36.82
2019-05-22T17:44:12.230Z,36.87
2019-05-22T17:46:44.590Z,36.91
2019-05-22T17:49:16.762Z,37.79
2019-05-22T17:51:45.445Z,35.83
2019-05-22T17:54:14.128Z,36.51
2019-05-22T17:56:42.866Z,36.21
2019-05-22T17:59:11.287Z,37.89
2019-05-22T18:01:40.337Z,37.03
2019-05-22T18:04:09.191Z,36.95
2019-05-22T18:06:37.778Z,36.54
2019-05-22T18:09:10.785Z,36.06
2019-05-22T18:11:40.823Z,38.22
2019-05-22T18:14:11.567Z,36.84
2019-05-22T18:16:40.170Z,36.29
2019-05-22T18:19:11.938Z,35.68
2019-05-22T18:21:41.237Z,37.88
2019-05-22T18:24:09.740Z,37.24
2019-05-22T18:26:38.329Z,37.26
2019-05-22T18:29:06.759Z,37.57
2019-05-22T18:31:35.195Z,37.62
2019-05-22T18:34:03.697Z,38.16
2019-05-22T18:36:32.148Z,38.93
2019-05-22T18:39:00.570Z,40.01
2019-05-22T18:41:29.195Z,38.99
2019-05-22T18:43:59.165Z,38.55
2019-05-22T18:46:27.641Z,39.72
2019-05-22T18:48:56.079Z,39.54
2019-05-22T18:51:24.807Z,39.26
2019-05-22T18:53:53.751Z,39.53
2019-05-22T18:56:22.294Z,40.66
2019-05-22T18:58:51.074Z,40.96
2019-05-22T19:01:19.721Z,41.33
2019-05-22T19:03:48.295Z,41.41
2019-05-22T19:06:29.695Z,41.51
2019-05-22T19:08:47.844Z,42.19
2019-05-22T19:11:16.323Z,42.31
2019-05-22T19:13:44.757Z,42.65
2019-05-22T19:16:14.848Z,42.51
2019-05-22T19:18:43.358Z,43.26
2019-05-22T19:21:12.050Z,43.50
2019-05-22T19:23:40.761Z,42.39
2019-05-22T19:26:09.260Z,42.69
2019-05-22T19:28:43.373Z,43.01
2019-05-22T19:31:08.020Z,43.59
2019-05-22T19:33:36.704Z,43.29
2019-05-22T19:36:05.660Z,43.22
2019-05-22T19:38:36.179Z,43.18
2019-05-22T19:41:05.097Z,44.44
2019-05-22T19:43:35.035Z,44.22
2019-05-22T19:46:04.998Z,45.63
2019-05-22T19:48:33.922Z,46.53
2019-05-22T19:51:04.256Z,48.49
2019-05-22T19:53:32.994Z,47.22
2019-05-22T19:56:01.486Z,48.53
2019-05-22T19:58:30.385Z,47.53
2019-05-22T20:01:01.913Z,48.90
2019-05-22T20:03:30.500Z,49.61
2019-05-22T20:05:59.107Z,49.38
2019-05-22T20:08:36.323Z,49.50
2019-05-22T20:11:04.188Z,49.48
2019-05-22T20:13:33.617Z,50.17
2019-05-22T20:16:02.613Z,49.40
2019-05-22T20:18:32.102Z,48.62
2019-05-22T20:21:00.534Z,48.54
2019-05-22T20:23:35.954Z,48.74
2019-05-22T20:26:01.000Z,47.27
2019-05-22T20:28:29.561Z,47.77
2019-05-22T20:30:58.203Z,49.53
2019-05-22T20:33:27.171Z,47.91
2019-05-22T20:35:56.606Z,47.39
2019-05-22T20:38:25.494Z,47.50
2019-05-22T20:40:54.086Z,48.14
2019-05-22T20:43:22.782Z,48.12
2019-05-22T20:45:53.444Z,48.11
2019-05-22T20:48:27.114Z,48.13
2019-05-22T20:50:59.669Z,49.10
2019-05-22T20:53:30.327Z,48.55
2019-05-22T20:55:59.764Z,48.17
2019-05-22T20:58:32.370Z,48.20
2019-05-22T21:01:00.980Z,48.54
2019-05-22T21:03:31.744Z,48.06
2019-05-22T21:06:01.085Z,48.73
2019-05-22T21:08:30.801Z,48.48
2019-05-22T21:11:00.768Z,50.46
2019-05-22T21:13:31.564Z,50.73
2019-05-22T21:16:01.017Z,50.13
2019-05-22T21:18:35.438Z,48.83
2019-05-22T21:21:05.670Z,49.97
2019-05-22T21:23:35.751Z,50.96
2019-05-22T21:26:04.338Z,51.45
2019-05-22T21:28:32.789Z,50.63
2019-05-22T21:31:02.441Z,51.05
2019-05-22T21:33:31.824Z,51.71
2019-05-22T21:36:00.786Z,52.01
2019-05-22T21:38:30.381Z,52.61
2019-05-22T21:40:59.491Z,51.74
2019-05-22T21:43:28.418Z,53.15
2019-05-22T21:45:57.551Z,52.52
2019-05-22T21:48:26.792Z,52.59
2019-05-22T21:50:55.796Z,52.40
2019-05-22T21:53:25.088Z,52.95
2019-05-22T21:56:04.053Z,52.65
2019-05-22T21:58:24.343Z,51.58
2019-05-22T22:00:57.710Z,52.08
2019-05-22T22:03:45.219Z,52.17
2019-05-22T22:06:15.472Z,52.83
2019-05-22T22:08:44.289Z,52.47
2019-05-22T22:11:13.174Z,53.34
2019-05-22T22:13:43.433Z,53.74
2019-05-22T22:16:11.945Z,54.10
2019-05-22T22:18:41.266Z,53.70
2019-05-22T22:21:11.269Z,54.11
2019-05-22T22:23:39.790Z,53.60
2019-05-22T22:26:24.662Z,54.17
2019-05-22T22:28:40.286Z,53.74
2019-05-22T22:31:20.290Z,53.96
2019-05-22T22:33:52.248Z,54.48
2019-05-22T22:36:20.770Z,54.08
2019-05-22T22:38:54.138Z,55.59
2019-05-22T22:41:22.580Z,55.20
2019-05-22T22:43:52.845Z,55.54
2019-05-22T22:46:46.594Z,55.86
2019-05-22T22:49:17.253Z,55.30
2019-05-22T22:51:47.408Z,55.13
2019-05-22T22:54:16.646Z,56.30
2019-05-22T22:56:45.590Z,56.27
2019-05-22T22:59:15.258Z,55.57
2019-05-22T23:01:47.005Z,55.54
2019-05-22T23:04:16.476Z,56.15
2019-05-22T23:06:46.132Z,56.08
2019-05-22T23:09:15.328Z,56.01
2019-05-22T23:11:45.471Z,55.89
2019-05-22T23:14:15.552Z,55.34
2019-05-22T23:16:44.263Z,55.19
2019-05-22T23:19:17.143Z,55.93
2019-05-22T23:21:45.529Z,56.96
2019-05-22T23:24:14.469Z,57.99
2019-05-22T23:26:43.535Z,56.61
2019-05-22T23:29:12.743Z,55.90
2019-05-22T23:31:41.259Z,56.30
2019-05-22T23:34:09.929Z,56.53
2019-05-22T23:36:39.067Z,56.80
2019-05-22T23:39:12.869Z,57.62
2019-05-22T23:41:42.182Z,58.56
2019-05-22T23:44:12.360Z,57.52
2019-05-22T23:46:42.922Z,58.89
2019-05-22T23:49:12.589Z,58.07
2019-05-22T23:51:41.290Z,58.03
2019-05-22T23:54:10.909Z,57.35
2019-05-22T23:56:39.865Z,56.86
2019-05-22T23:59:08.343Z,56.61
